Time;durP1;ratioP1;P1;durP2;ratioP2;P2;SDS_P1;SDS_P2;PMS_P1;PMS_P2;Temp;Humidity;BMP_temperature;BMP_pressure;BME280_temperature;BME280_humidity;BME280_pressure;Samples;Min_cycle;Max_cycle;Signal;HPM_P1;HPM_P2
2024/01/24 00:00:42;;;;;;;9.48;5.10;;;0.80;99.90;;;;;;5061122;28;20025;-80
2024/01/24 00:03:07;;;;;;;10.32;5.00;;;0.80;99.90;;;;;;5060099;28;20088;-80
2024/01/24 00:05:33;;;;;;;7.35;4.28;;;0.80;99.90;;;;;;5062317;28;20396;-80
2024/01/24 00:07:59;;;;;;;6.90;4.28;;;0.80;99.90;;;;;;5044130;28;20120;-80
2024/01/24 00:10:24;;;;;;;6.72;4.20;;;0.70;99.90;;;;;;5061896;28;20405;-80
2024/01/24 00:12:50;;;;;;;6.25;3.58;;;0.70;99.90;;;;;;5062456;28;20393;-80
2024/01/24 00:15:16;;;;;;;5.47;3.10;;;0.70;99.90;;;;;;5059515;28;20417;-80
2024/01/24 00:17:41;;;;;;;5.28;2.92;;;0.70;99.90;;;;;;5060960;28;20029;-80
2024/01/24 00:20:09;;;;;;;5.03;3.05;;;0.60;99.90;;;;;;5058708;28;20029;-80
2024/01/24 00:22:34;;;;;;;4.93;3.10;;;0.70;99.90;;;;;;5059151;28;20044;-80
2024/01/24 00:25:00;;;;;;;6.03;3.17;;;0.70;99.90;;;;;;5059351;28;20051;-81
2024/01/24 00:27:26;;;;;;;6.60;3.67;;;0.70;99.90;;;;;;5057626;28;20094;-80
2024/01/24 00:29:52;;;;;;;6.03;3.22;;;0.70;99.90;;;;;;5059464;28;20056;-80
2024/01/24 00:32:17;;;;;;;5.45;3.42;;;0.70;99.90;;;;;;5059116;28;20033;-80
2024/01/24 00:34:43;;;;;;;5.30;2.95;;;0.70;99.90;;;;;;5057702;28;20033;-80
2024/01/24 00:37:09;;;;;;;7.80;4.10;;;0.70;99.90;;;;;;5057538;28;20405;-81
2024/01/24 00:39:34;;;;;;;6.97;3.80;;;0.80;99.90;;;;;;5059990;28;20107;-80
2024/01/24 00:42:00;;;;;;;5.95;3.60;;;0.80;99.90;;;;;;5057564;28;20079;-80
2024/01/24 00:44:26;;;;;;;7.60;4.32;;;0.80;99.90;;;;;;5058606;28;20029;-80
2024/01/24 00:46:52;;;;;;;9.27;4.65;;;0.80;99.90;;;;;;5058256;28;20489;-80
2024/01/24 00:49:18;;;;;;;9.20;4.68;;;0.80;99.90;;;;;;5056988;28;20060;-80
2024/01/24 00:51:44;;;;;;;8.93;4.72;;;0.80;99.90;;;;;;5056635;28;20029;-81
2024/01/24 00:54:09;;;;;;;9.38;5.38;;;0.80;99.90;;;;;;5041126;28;20112;-81
2024/01/24 00:56:35;;;;;;;12.27;6.50;;;0.80;99.90;;;;;;5059447;28;20082;-81
2024/01/24 00:59:01;;;;;;;10.63;6.63;;;0.80;99.90;;;;;;5057327;28;20474;-81
2024/01/24 01:01:26;;;;;;;10.07;6.35;;;0.80;99.90;;;;;;5057511;28;20017;-81
2024/01/24 01:03:52;;;;;;;11.68;6.68;;;0.70;99.90;;;;;;5057407;28;20027;-81
2024/01/24 01:06:18;;;;;;;10.95;7.40;;;0.80;99.90;;;;;;5058407;28;20370;-81
2024/01/24 01:08:44;;;;;;;10.40;6.05;;;0.70;99.90;;;;;;5056316;28;20437;-81
2024/01/24 01:11:09;;;;;;;12.32;6.72;;;0.70;99.90;;;;;;5055263;28;20033;-81
2024/01/24 01:13:35;;;;;;;11.48;6.38;;;0.70;99.90;;;;;;5056174;28;20060;-81
2024/01/24 01:16:01;;;;;;;10.32;5.20;;;0.70;99.90;;;;;;5056099;28;20044;-81
2024/01/24 01:18:26;;;;;;;7.57;4.90;;;0.70;99.90;;;;;;5056110;28;20060;-81
2024/01/24 01:20:52;;;;;;;8.88;4.93;;;0.70;99.90;;;;;;5054931;28;20366;-80
2024/01/24 01:23:18;;;;;;;8.75;4.47;;;0.70;99.90;;;;;;5055083;28;20021;-80
2024/01/24 01:25:44;;;;;;;7.05;4.47;;;0.60;99.90;;;;;;5053919;28;20025;-81
2024/01/24 01:28:09;;;;;;;9.25;4.95;;;0.60;99.90;;;;;;5054660;28;20069;-80
2024/01/24 01:30:35;;;;;;;9.73;4.97;;;0.60;99.90;;;;;;5054825;28;20033;-81
2024/01/24 01:33:00;;;;;;;6.72;4.38;;;0.60;99.90;;;;;;5036512;28;20036;-81
2024/01/24 01:35:26;;;;;;;9.38;4.40;;;0.60;99.90;;;;;;5036844;28;20055;-81
2024/01/24 01:37:52;;;;;;;8.60;4.90;;;0.60;99.90;;;;;;5054404;28;20048;-81
2024/01/24 01:40:18;;;;;;;8.23;4.75;;;0.70;99.90;;;;;;5055255;28;20021;-82
2024/01/24 01:42:44;;;;;;;7.18;4.80;;;0.70;99.90;;;;;;5054624;28;20021;-82
2024/01/24 01:45:10;;;;;;;6.75;4.38;;;0.70;99.90;;;;;;5056166;28;20025;-82
2024/01/24 01:47:37;;;;;;;14.80;7.63;;;0.70;99.90;;;;;;5058255;28;20062;-82
2024/01/24 01:50:09;;;;;;;14.35;7.10;;;0.70;99.90;;;;;;5058761;28;20470;-82
2024/01/24 01:52:36;;;;;;;6.63;4.32;;;0.80;99.90;;;;;;5058602;28;20037;-81
2024/01/24 01:55:04;;;;;;;6.28;3.72;;;0.70;99.90;;;;;;5060430;28;20029;-82
2024/01/24 01:57:31;;;;;;;5.88;4.05;;;0.80;99.90;;;;;;5056783;28;20050;-82
2024/01/24 01:59:58;;;;;;;7.90;4.30;;;0.70;99.90;;;;;;5058990;28;20043;-82
2024/01/24 02:02:23;;;;;;;7.78;4.60;;;0.70;99.90;;;;;;5060981;28;20462;-82
2024/01/24 02:04:49;;;;;;;6.65;4.00;;;0.80;99.90;;;;;;5058275;28;20036;-82
2024/01/24 02:07:15;;;;;;;6.78;4.38;;;0.80;99.90;;;;;;5058536;28;20092;-82
2024/01/24 02:09:41;;;;;;;7.15;3.92;;;0.80;99.90;;;;;;5057413;28;20032;-82
2024/01/24 02:12:07;;;;;;;8.40;4.65;;;0.80;99.90;;;;;;5061358;28;20025;-82
2024/01/24 02:14:33;;;;;;;7.63;4.13;;;0.80;99.90;;;;;;5060047;28;20389;-81
2024/01/24 02:16:58;;;;;;;6.57;4.03;;;0.80;99.90;;;;;;5059651;28;20405;-82
2024/01/24 02:19:25;;;;;;;7.45;4.32;;;0.80;99.90;;;;;;5060301;28;20036;-81
2024/01/24 02:21:51;;;;;;;6.50;4.47;;;0.80;99.90;;;;;;5060431;28;20021;-81
2024/01/24 02:24:17;;;;;;;6.97;4.65;;;0.80;99.90;;;;;;5059059;28;20021;-81
2024/01/24 02:26:43;;;;;;;5.45;3.80;;;0.80;99.90;;;;;;5060465;28;20025;-81
2024/01/24 02:29:09;;;;;;;7.72;4.60;;;0.80;99.90;;;;;;5061810;28;20028;-82
2024/01/24 02:31:34;;;;;;;11.20;5.63;;;0.80;99.90;;;;;;5061096;28;20029;-82
2024/01/24 02:34:00;;;;;;;10.50;5.22;;;0.80;99.90;;;;;;5062740;28;20037;-81
2024/01/24 02:36:26;;;;;;;7.25;4.38;;;0.80;99.90;;;;;;5059613;28;20056;-81
2024/01/24 02:38:51;;;;;;;7.60;4.38;;;0.70;99.90;;;;;;5060322;28;20111;-81
2024/01/24 02:41:19;;;;;;;8.02;3.95;;;0.70;99.90;;;;;;5059670;28;20029;-81
2024/01/24 02:43:44;;;;;;;6.28;3.63;;;0.70;99.90;;;;;;5042968;28;20025;-81
2024/01/24 02:46:10;;;;;;;4.57;2.83;;;0.70;99.90;;;;;;5061081;28;20064;-81
2024/01/24 02:48:36;;;;;;;6.60;3.13;;;0.70;99.90;;;;;;5062144;28;20033;-81
2024/01/24 02:51:01;;;;;;;5.95;3.40;;;0.70;99.90;;;;;;5061455;28;20068;-81
2024/01/24 02:53:27;;;;;;;5.13;3.25;;;0.80;99.90;;;;;;5061289;28;20370;-81
2024/01/24 02:55:53;;;;;;;6.25;3.90;;;0.80;99.90;;;;;;5061063;28;20047;-81
2024/01/24 02:58:18;;;;;;;5.07;3.42;;;0.80;99.90;;;;;;5059929;28;20032;-81
2024/01/24 03:00:44;;;;;;;8.70;4.13;;;0.80;99.90;;;;;;5024735;28;20083;-81
2024/01/24 03:03:10;;;;;;;6.45;4.18;;;0.80;99.90;;;;;;5057807;28;20503;-81
2024/01/24 03:05:35;;;;;;;6.95;4.15;;;0.80;99.90;;;;;;5057567;28;20025;-81
2024/01/24 03:08:02;;;;;;;6.60;3.90;;;0.80;99.90;;;;;;5057072;28;20029;-81
2024/01/24 03:10:28;;;;;;;10.07;5.30;;;0.80;99.90;;;;;;5058244;28;20037;-81
2024/01/24 03:12:54;;;;;;;7.40;4.05;;;0.80;99.90;;;;;;5040749;28;20051;-81
2024/01/24 03:15:20;;;;;;;7.95;4.05;;;0.80;99.90;;;;;;5058908;28;20071;-81
2024/01/24 03:17:47;;;;;;;5.93;3.90;;;0.80;99.90;;;;;;5056823;28;20029;-81
2024/01/24 03:20:14;;;;;;;7.20;3.50;;;0.80;99.90;;;;;;5056824;28;20029;-81
2024/01/24 03:22:42;;;;;;;8.02;4.22;;;0.80;99.90;;;;;;5056310;28;20489;-81
2024/01/24 03:25:08;;;;;;;5.60;3.25;;;0.80;99.90;;;;;;5055654;28;20404;-81
2024/01/24 03:27:34;;;;;;;7.28;3.70;;;0.80;99.90;;;;;;5057302;28;20037;-81
2024/01/24 03:30:00;;;;;;;6.05;3.53;;;0.80;99.90;;;;;;5056438;28;20496;-81
2024/01/24 03:32:25;;;;;;;6.35;4.28;;;0.80;99.90;;;;;;5057140;28;20040;-81
2024/01/24 03:34:56;;;;;;;6.57;4.28;;;0.80;99.90;;;;;;5039162;28;20107;-81
2024/01/24 03:37:22;;;;;;;8.82;5.10;;;0.80;99.90;;;;;;5056973;28;20485;-81
2024/01/24 03:39:47;;;;;;;8.80;5.22;;;0.80;99.90;;;;;;5056276;28;20037;-81
2024/01/24 03:42:13;;;;;;;10.40;5.45;;;0.80;99.90;;;;;;5055499;28;20033;-81
2024/01/24 03:44:39;;;;;;;15.75;9.40;;;0.80;99.90;;;;;;5038445;28;20029;-81
2024/01/24 03:47:05;;;;;;;13.88;8.02;;;0.80;99.90;;;;;;5057407;28;20060;-81
2024/01/24 03:49:31;;;;;;;10.95;6.63;;;0.70;99.90;;;;;;5057794;28;20030;-81
2024/01/24 03:51:56;;;;;;;12.07;6.82;;;0.70;99.90;;;;;;5056133;28;20086;-81
2024/01/24 03:54:22;;;;;;;10.48;6.63;;;0.70;99.90;;;;;;5056619;28;20412;-81
2024/01/24 03:56:49;;;;;;;12.15;6.57;;;0.70;99.90;;;;;;5056491;28;20468;-81
2024/01/24 03:59:15;;;;;;;9.77;6.15;;;0.70;99.90;;;;;;5057431;28;20021;-81
2024/01/24 04:01:40;;;;;;;9.82;6.68;;;0.70;99.90;;;;;;5057731;28;20511;-81
2024/01/24 04:04:07;;;;;;;11.07;6.15;;;0.70;99.90;;;;;;5056373;28;20029;-81
2024/01/24 04:06:33;;;;;;;9.07;5.90;;;0.70;99.90;;;;;;5040445;28;20481;-81
2024/01/24 04:08:59;;;;;;;10.88;6.30;;;0.80;99.90;;;;;;5058218;28;20095;-81
2024/01/24 04:11:24;;;;;;;11.80;5.97;;;0.80;99.90;;;;;;5057943;28;20043;-81
2024/01/24 04:13:53;;;;;;;10.10;6.13;;;0.80;99.90;;;;;;5039653;28;20033;-81
2024/01/24 04:16:19;;;;;;;11.10;5.70;;;0.80;99.90;;;;;;5040203;28;20465;-81
2024/01/24 04:18:45;;;;;;;10.38;6.05;;;0.80;99.90;;;;;;5056958;28;20032;-81
2024/01/24 04:21:11;;;;;;;8.82;5.25;;;0.80;99.90;;;;;;5057783;28;20025;-81
2024/01/24 04:23:37;;;;;;;8.18;5.13;;;0.80;99.90;;;;;;5059079;28;20496;-81
2024/01/24 04:26:04;;;;;;;8.93;5.07;;;0.80;99.90;;;;;;5057755;28;20025;-81
2024/01/24 04:28:30;;;;;;;8.80;5.03;;;0.80;99.90;;;;;;5059121;28;20025;-81
2024/01/24 04:30:56;;;;;;;9.15;5.30;;;0.90;99.90;;;;;;5041918;28;20097;-81
2024/01/24 04:33:21;;;;;;;7.82;5.60;;;0.90;99.90;;;;;;5058769;28;20064;-81
2024/01/24 04:35:47;;;;;;;10.60;5.70;;;0.80;99.90;;;;;;5058629;28;20029;-81
2024/01/24 04:38:13;;;;;;;7.75;5.30;;;0.90;99.90;;;;;;5038754;28;20029;-81
2024/01/24 04:40:38;;;;;;;8.40;5.30;;;0.80;99.90;;;;;;5040262;28;20029;-81
2024/01/24 04:43:04;;;;;;;8.60;4.20;;;0.90;99.90;;;;;;5040021;28;20112;-81
2024/01/24 04:45:30;;;;;;;6.97;4.15;;;0.90;99.90;;;;;;5056063;28;20036;-81
2024/01/24 04:47:55;;;;;;;7.28;4.32;;;0.90;99.90;;;;;;5057839;28;20039;-81
2024/01/24 04:50:21;;;;;;;7.22;4.13;;;0.90;99.90;;;;;;5060044;28;20033;-81
2024/01/24 04:52:47;;;;;;;7.50;4.00;;;0.90;99.90;;;;;;5067562;28;20025;-81
2024/01/24 04:55:13;;;;;;;6.47;4.20;;;0.90;99.90;;;;;;5051524;28;20120;-82
2024/01/24 04:57:39;;;;;;;5.95;3.88;;;0.90;99.90;;;;;;5069162;28;20052;-81
2024/01/24 05:00:09;;;;;;;6.75;3.80;;;0.90;99.90;;;;;;5069540;28;20476;-81
2024/01/24 05:02:36;;;;;;;6.70;4.10;;;0.90;99.90;;;;;;5068958;28;20025;-81
2024/01/24 05:05:05;;;;;;;9.75;6.10;;;0.90;99.90;;;;;;5066132;28;20025;-81
2024/01/24 05:07:30;;;;;;;9.38;5.72;;;0.90;99.90;;;;;;5065435;28;20060;-81
2024/01/24 05:09:56;;;;;;;7.65;4.78;;;0.90;99.90;;;;;;5066485;28;20029;-81
2024/01/24 05:12:22;;;;;;;7.05;4.45;;;0.90;99.90;;;;;;5047152;28;20045;-81
2024/01/24 05:14:47;;;;;;;8.68;4.80;;;0.90;99.90;;;;;;5047284;28;20037;-81
2024/01/24 05:17:13;;;;;;;10.50;5.97;;;0.90;99.90;;;;;;5064641;28;20033;-81
2024/01/24 05:19:39;;;;;;;9.10;4.90;;;0.90;99.90;;;;;;5048073;28;20452;-81
2024/01/24 05:22:05;;;;;;;8.15;5.50;;;0.90;99.90;;;;;;5062688;28;20025;-82
2024/01/24 05:24:31;;;;;;;7.82;5.03;;;0.90;99.90;;;;;;5055847;28;20086;-81
2024/01/24 05:26:57;;;;;;;7.13;4.70;;;0.90;99.90;;;;;;5055486;28;20126;-81
2024/01/24 05:29:22;;;;;;;7.13;4.90;;;0.90;99.90;;;;;;5053389;28;20488;-81
2024/01/24 05:31:48;;;;;;;9.35;4.55;;;0.90;99.90;;;;;;5037049;28;20032;-81
2024/01/24 05:34:14;;;;;;;5.97;3.70;;;0.90;99.90;;;;;;5054131;28;20044;-82
2024/01/24 05:36:39;;;;;;;6.63;3.60;;;0.90;99.90;;;;;;5055279;28;20480;-82
2024/01/24 05:39:06;;;;;;;7.47;4.55;;;0.90;99.90;;;;;;5054631;28;20447;-81
2024/01/24 05:41:33;;;;;;;8.30;5.15;;;0.90;99.90;;;;;;5053065;28;20424;-81
2024/01/24 05:43:59;;;;;;;8.57;5.05;;;0.90;99.90;;;;;;5054014;28;20075;-81
2024/01/24 05:46:25;;;;;;;9.25;5.10;;;0.90;99.90;;;;;;5032183;28;20125;-81
2024/01/24 05:48:50;;;;;;;8.30;5.28;;;0.90;99.90;;;;;;5016678;28;20061;-81
2024/01/24 05:51:16;;;;;;;9.77;6.63;;;0.90;99.90;;;;;;5045363;28;20087;-81
2024/01/24 05:53:42;;;;;;;13.00;7.95;;;0.90;99.90;;;;;;5053417;28;20485;-81
2024/01/24 05:56:08;;;;;;;10.23;6.70;;;0.90;99.90;;;;;;5036505;28;20076;-81
2024/01/24 05:58:35;;;;;;;9.80;5.80;;;0.90;99.90;;;;;;5053820;28;20025;-81
2024/01/24 06:01:00;;;;;;;8.07;4.53;;;0.90;99.90;;;;;;5052815;28;20477;-81
2024/01/24 06:03:26;;;;;;;10.10;5.43;;;0.90;99.90;;;;;;5054427;28;20078;-81
2024/01/24 06:05:51;;;;;;;12.80;5.45;;;0.90;99.90;;;;;;5054328;28;20107;-81
2024/01/24 06:08:17;;;;;;;10.73;4.78;;;0.90;99.90;;;;;;5052864;28;20064;-81
2024/01/24 06:10:43;;;;;;;8.93;4.82;;;0.90;99.90;;;;;;5053263;28;20037;-81
2024/01/24 06:13:09;;;;;;;7.65;3.97;;;0.90;99.90;;;;;;5054369;28;20106;-82
2024/01/24 06:15:35;;;;;;;8.55;4.53;;;0.90;99.90;;;;;;5054754;28;20481;-81
2024/01/24 06:18:00;;;;;;;9.60;4.80;;;0.90;99.90;;;;;;5054881;28;20041;-81
2024/01/24 06:20:26;;;;;;;15.32;6.10;;;0.90;99.90;;;;;;5054244;28;20071;-81
2024/01/24 06:22:52;;;;;;;12.98;5.53;;;0.90;99.90;;;;;;5036707;28;20052;-81
2024/01/24 06:25:17;;;;;;;20.27;6.63;;;0.90;99.90;;;;;;5053865;28;20029;-81
2024/01/24 06:27:45;;;;;;;11.40;5.70;;;0.90;99.90;;;;;;5053874;28;20088;-82
2024/01/24 06:30:12;;;;;;;11.05;6.07;;;0.90;99.90;;;;;;5036540;28;20029;-81
2024/01/24 06:32:38;;;;;;;10.80;5.80;;;0.90;99.90;;;;;;5036408;28;20062;-81
2024/01/24 06:35:04;;;;;;;10.13;6.22;;;0.90;99.90;;;;;;5052895;28;20509;-81
2024/01/24 06:37:29;;;;;;;10.50;6.05;;;0.80;99.90;;;;;;5054364;28;20523;-81
2024/01/24 06:39:55;;;;;;;11.07;6.63;;;0.90;99.90;;;;;;5052921;28;20032;-81
2024/01/24 06:42:21;;;;;;;15.40;6.97;;;0.90;99.90;;;;;;5054322;28;20144;-81
2024/01/24 06:44:46;;;;;;;13.05;6.80;;;0.90;99.90;;;;;;5052768;28;20025;-82
2024/01/24 06:47:12;;;;;;;9.80;5.18;;;0.90;99.90;;;;;;5035240;28;20033;-82
2024/01/24 06:49:38;;;;;;;11.63;5.57;;;0.90;99.90;;;;;;5052759;28;20063;-82
2024/01/24 06:52:04;;;;;;;13.27;6.45;;;0.90;99.90;;;;;;5035408;28;20040;-82
2024/01/24 06:54:29;;;;;;;14.75;8.13;;;0.90;99.90;;;;;;5051969;28;20036;-82
2024/01/24 06:56:55;;;;;;;12.85;6.57;;;0.80;99.90;;;;;;5053824;28;20032;-82
2024/01/24 06:59:21;;;;;;;10.82;6.15;;;0.90;99.90;;;;;;5059061;28;20029;-82
2024/01/24 07:01:47;;;;;;;12.57;7.40;;;0.90;99.90;;;;;;5038832;28;20115;-82
2024/01/24 07:04:12;;;;;;;14.43;7.47;;;0.80;99.90;;;;;;5056638;28;20047;-82
2024/01/24 07:06:38;;;;;;;11.32;6.35;;;0.90;99.90;;;;;;5038798;28;20032;-82
2024/01/24 07:09:03;;;;;;;10.73;5.60;;;0.90;99.90;;;;;;5056969;28;20112;-82
2024/01/24 07:11:29;;;;;;;10.13;5.65;;;0.90;99.90;;;;;;5055008;28;20036;-82
2024/01/24 07:13:55;;;;;;;10.65;5.50;;;0.90;99.90;;;;;;5037986;28;20040;-82
2024/01/24 07:16:20;;;;;;;11.38;5.70;;;0.90;99.90;;;;;;5054951;28;20031;-82
2024/01/24 07:18:46;;;;;;;9.32;5.32;;;0.90;99.90;;;;;;5055056;28;20079;-83
2024/01/24 07:21:14;;;;;;;10.63;5.28;;;0.90;99.90;;;;;;5054700;28;20051;-82
2024/01/24 07:23:39;;;;;;;12.80;5.93;;;0.90;99.90;;;;;;5055802;28;20070;-82
2024/01/24 07:26:05;;;;;;;10.88;5.70;;;0.90;99.90;;;;;;5054958;28;20469;-82
2024/01/24 07:28:32;;;;;;;11.25;5.82;;;0.90;99.90;;;;;;5021307;28;20053;-83
2024/01/24 07:30:57;;;;;;;9.40;5.82;;;0.90;99.90;;;;;;5037836;28;20460;-83
2024/01/24 07:33:23;;;;;;;11.23;5.63;;;1.00;99.90;;;;;;5037831;28;20056;-83
2024/01/24 07:35:49;;;;;;;9.38;5.13;;;1.00;99.90;;;;;;5037855;28;20033;-83
2024/01/24 07:38:14;;;;;;;8.40;5.20;;;1.10;99.90;;;;;;5055719;28;20029;-83
2024/01/24 07:40:40;;;;;;;9.15;5.60;;;1.10;99.90;;;;;;5054670;28;20025;-83
2024/01/24 07:43:06;;;;;;;11.48;5.30;;;1.10;99.90;;;;;;5037677;28;20032;-82
2024/01/24 07:45:32;;;;;;;11.65;6.82;;;1.10;99.90;;;;;;5038128;28;20060;-83
2024/01/24 07:47:57;;;;;;;18.77;7.18;;;1.10;99.90;;;;;;5054735;28;20067;-83
2024/01/24 07:50:23;;;;;;;10.85;6.43;;;1.20;99.90;;;;;;5037733;28;20044;-83
2024/01/24 07:52:49;;;;;;;11.02;6.45;;;1.20;99.90;;;;;;5037790;28;20037;-83
2024/01/24 07:55:15;;;;;;;13.80;6.82;;;1.20;99.90;;;;;;5054401;28;20040;-82
2024/01/24 07:57:41;;;;;;;15.23;7.50;;;1.20;99.90;;;;;;5037916;28;20475;-83
2024/01/24 08:00:07;;;;;;;14.40;8.10;;;1.20;99.90;;;;;;5037406;28;20033;-82
2024/01/24 08:02:33;;;;;;;14.90;7.72;;;1.20;99.90;;;;;;5037761;28;20025;-83
2024/01/24 08:04:59;;;;;;;19.38;8.30;;;1.30;99.90;;;;;;5037410;28;20036;-83
2024/01/24 08:07:25;;;;;;;12.02;6.60;;;1.30;99.90;;;;;;5055437;28;20029;-82
2024/01/24 08:09:50;;;;;;;17.30;7.35;;;1.30;99.90;;;;;;5056184;28;20052;-82
2024/01/24 08:12:16;;;;;;;15.40;6.22;;;1.40;99.90;;;;;;5054146;28;20033;-82
2024/01/24 08:14:42;;;;;;;11.43;6.57;;;1.40;99.90;;;;;;5053845;28;20061;-82
2024/01/24 08:17:10;;;;;;;10.02;6.32;;;1.50;99.90;;;;;;5054164;28;20033;-82
2024/01/24 08:19:38;;;;;;;16.50;7.50;;;1.50;99.90;;;;;;5054378;28;20028;-83
2024/01/24 08:22:04;;;;;;;16.23;10.25;;;1.50;99.90;;;;;;5054036;28;20490;-82
2024/01/24 08:24:30;;;;;;;13.13;8.15;;;1.50;99.90;;;;;;5054181;28;20127;-83
2024/01/24 08:26:56;;;;;;;11.73;7.43;;;1.50;99.90;;;;;;5054508;28;20025;-82
2024/01/24 08:29:21;;;;;;;20.65;12.85;;;1.60;99.90;;;;;;5053648;28;20033;-82
2024/01/24 08:31:47;;;;;;;18.25;12.02;;;1.60;99.90;;;;;;5053906;28;20033;-82
2024/01/24 08:34:13;;;;;;;13.88;9.05;;;1.60;99.90;;;;;;5037272;28;20029;-83
2024/01/24 08:36:39;;;;;;;12.65;7.68;;;1.70;99.90;;;;;;5053609;28;20500;-82
2024/01/24 08:39:06;;;;;;;13.18;8.70;;;1.70;99.90;;;;;;5054397;28;20029;-83
2024/01/24 08:41:32;;;;;;;12.63;7.95;;;1.70;99.90;;;;;;5054545;28;20021;-83
2024/01/24 08:43:58;;;;;;;16.25;8.70;;;1.70;99.90;;;;;;5053787;28;20100;-83
2024/01/24 08:46:24;;;;;;;42.60;26.92;;;1.80;99.90;;;;;;5054219;28;20071;-83
2024/01/24 08:48:51;;;;;;;36.15;21.83;;;1.80;99.90;;;;;;5033412;28;20029;-83
2024/01/24 08:51:17;;;;;;;15.68;7.72;;;1.80;99.90;;;;;;5034094;28;20045;-83
2024/01/24 08:53:43;;;;;;;14.93;7.93;;;1.80;99.90;;;;;;5033624;28;20036;-83
2024/01/24 08:56:09;;;;;;;15.13;8.48;;;1.80;99.90;;;;;;5052899;28;20496;-83
2024/01/24 08:58:36;;;;;;;16.90;8.88;;;1.80;99.90;;;;;;5036883;28;20031;-83
2024/01/24 09:01:02;;;;;;;16.05;9.55;;;1.80;99.90;;;;;;5054001;28;20053;-83
2024/01/24 09:03:28;;;;;;;16.27;8.13;;;1.90;99.90;;;;;;5053307;28;20064;-83
2024/01/24 09:05:54;;;;;;;13.40;8.02;;;1.90;99.90;;;;;;5053260;28;20021;-83
2024/01/24 09:08:19;;;;;;;12.95;7.45;;;1.90;99.90;;;;;;5037134;28;20033;-83
2024/01/24 09:10:45;;;;;;;14.77;7.10;;;2.00;99.90;;;;;;5053637;28;20033;-83
2024/01/24 09:13:12;;;;;;;14.70;6.55;;;2.00;99.90;;;;;;5037074;28;20035;-83
2024/01/24 09:15:38;;;;;;;15.02;8.45;;;2.00;99.90;;;;;;5054117;28;20075;-83
2024/01/24 09:18:04;;;;;;;13.93;7.13;;;2.10;99.90;;;;;;5054142;28;20420;-83
2024/01/24 09:20:30;;;;;;;13.98;7.13;;;2.10;99.90;;;;;;5054174;28;20524;-83
2024/01/24 09:22:55;;;;;;;14.43;6.25;;;2.10;99.90;;;;;;5053410;28;20505;-83
2024/01/24 09:25:22;;;;;;;10.18;5.70;;;2.20;99.90;;;;;;5036142;28;20029;-83
2024/01/24 09:27:47;;;;;;;12.20;5.80;;;2.20;99.90;;;;;;5035967;28;20029;-83
2024/01/24 09:30:13;;;;;;;14.88;9.27;;;2.30;99.90;;;;;;5052431;28;20037;-83
2024/01/24 09:32:39;;;;;;;13.90;8.50;;;2.40;99.90;;;;;;5019630;28;20086;-83
2024/01/24 09:35:05;;;;;;;12.27;8.10;;;2.40;99.90;;;;;;5035698;28;20037;-83
2024/01/24 09:37:30;;;;;;;14.70;9.63;;;2.40;99.90;;;;;;5052025;28;20428;-83
2024/01/24 09:39:56;;;;;;;13.70;8.93;;;2.50;99.90;;;;;;5019567;28;20366;-83
2024/01/24 09:42:25;;;;;;;15.50;8.13;;;2.50;99.90;;;;;;5053165;28;20036;-83
2024/01/24 09:44:51;;;;;;;14.73;8.15;;;2.50;99.90;;;;;;5052213;28;20017;-83
2024/01/24 09:47:22;;;;;;;17.92;7.82;;;2.50;99.90;;;;;;5052387;28;20040;-83
2024/01/24 09:49:48;;;;;;;11.88;7.05;;;2.60;99.90;;;;;;5052504;28;20025;-83
2024/01/24 09:52:16;;;;;;;12.32;7.30;;;2.60;99.90;;;;;;5036034;28;20493;-83
2024/01/24 09:54:43;;;;;;;14.60;8.73;;;2.70;99.90;;;;;;5053578;28;20067;-83
2024/01/24 09:57:10;;;;;;;16.35;8.18;;;2.70;99.90;;;;;;5052329;28;20115;-83
2024/01/24 09:59:36;;;;;;;15.65;8.10;;;2.70;99.90;;;;;;5052269;28;20102;-84
2024/01/24 10:02:05;;;;;;;21.13;11.02;;;2.80;99.90;;;;;;5052952;28;20052;-83
2024/01/24 10:04:37;;;;;;;32.65;17.63;;;2.70;99.90;;;;;;5053965;28;20009;-83
2024/01/24 10:07:09;;;;;;;30.30;15.80;;;2.70;99.90;;;;;;5036338;28;20032;-83
2024/01/24 10:09:35;;;;;;;22.25;12.20;;;2.70;99.90;;;;;;5036526;28;20021;-83
2024/01/24 10:12:00;;;;;;;24.80;11.25;;;2.80;99.90;;;;;;5035556;28;20031;-83
2024/01/24 10:14:27;;;;;;;16.40;9.05;;;2.90;99.90;;;;;;5035324;28;20047;-83
2024/01/24 10:16:53;;;;;;;16.13;9.00;;;2.90;99.90;;;;;;5019525;28;20033;-83
2024/01/24 10:19:25;;;;;;;18.63;10.43;;;2.90;99.90;;;;;;5036185;28;20025;-84
2024/01/24 10:21:52;;;;;;;19.08;12.13;;;3.00;99.90;;;;;;5052482;28;20032;-83
2024/01/24 10:24:18;;;;;;;16.30;11.70;;;3.10;99.90;;;;;;5019478;28;20033;-83
2024/01/24 10:26:46;;;;;;;20.73;10.68;;;3.20;99.90;;;;;;5036069;28;20056;-84
2024/01/24 10:29:12;;;;;;;20.05;10.63;;;3.20;99.90;;;;;;5052353;28;20474;-84
2024/01/24 10:31:38;;;;;;;16.98;9.85;;;3.40;99.90;;;;;;5037605;28;20447;-84
2024/01/24 10:34:14;;;;;;;12.38;8.90;;;3.40;99.90;;;;;;5057135;28;20041;-84
2024/01/24 10:36:44;;;;;;;17.77;9.68;;;3.50;99.90;;;;;;5058843;28;20032;-83
2024/01/24 10:39:14;;;;;;;15.63;8.85;;;3.70;99.90;;;;;;5057767;28;20515;-84
2024/01/24 10:41:42;;;;;;;16.88;9.88;;;3.70;99.90;;;;;;5055935;28;20029;-84
2024/01/24 10:44:11;;;;;;;12.07;8.20;;;3.80;99.90;;;;;;5039397;28;20029;-84
2024/01/24 10:46:37;;;;;;;12.15;8.10;;;4.00;99.90;;;;;;5055178;28;20024;-84
2024/01/24 10:49:03;;;;;;;16.95;8.38;;;4.00;99.90;;;;;;5039795;28;20083;-84
2024/01/24 10:51:30;;;;;;;12.63;7.95;;;4.10;99.90;;;;;;5039738;28;20064;-84
2024/01/24 10:53:56;;;;;;;17.02;7.97;;;4.10;99.90;;;;;;5055739;28;20078;-84
2024/01/24 10:56:27;;;;;;;15.00;7.68;;;4.10;99.90;;;;;;5040071;28;20033;-84
2024/01/24 10:58:55;;;;;;;13.05;7.20;;;4.10;99.90;;;;;;5057927;28;20128;-84
2024/01/24 11:01:20;;;;;;;11.85;6.88;;;4.10;99.90;;;;;;5056223;28;20032;-84
2024/01/24 11:03:49;;;;;;;12.40;6.88;;;4.10;99.90;;;;;;5038768;28;20021;-83
2024/01/24 11:06:17;;;;;;;11.43;6.03;;;4.20;99.90;;;;;;5056327;28;20029;-84
2024/01/24 11:09:03;;;;;;;11.32;7.28;;;4.20;99.90;;;;;;5038272;28;20022;-84
2024/01/24 11:11:32;;;;;;;10.75;6.22;;;4.20;99.90;;;;;;5036010;28;20033;-84
2024/01/24 11:13:59;;;;;;;8.77;7.13;;;4.30;99.90;;;;;;5035860;28;20030;-84
2024/01/24 11:16:37;;;;;;;12.13;6.90;;;4.40;99.90;;;;;;5055401;28;20396;-84
2024/01/24 11:19:23;;;;;;;10.30;7.63;;;4.40;99.90;;;;;;5039685;28;20098;-84
2024/01/24 11:21:49;;;;;;;13.25;7.78;;;4.40;99.90;;;;;;5056256;28;20362;-84
2024/01/24 11:24:42;;;;;;;10.77;7.43;;;4.50;99.90;;;;;;5038987;28;20056;-84
2024/01/24 11:27:30;;;;;;;16.55;9.05;;;4.60;99.90;;;;;;5054333;28;20425;-83
2024/01/24 11:29:56;;;;;;;10.40;8.02;;;4.50;99.90;;;;;;5054937;28;20025;-83
2024/01/24 11:32:44;;;;;;;14.30;8.75;;;4.60;99.90;;;;;;5056507;28;20030;-84
2024/01/24 11:35:40;;;;;;;16.92;10.18;;;4.50;99.90;;;;;;5054917;28;20052;-83
2024/01/24 11:38:29;;;;;;;21.88;13.77;;;4.50;99.90;;;;;;5055272;28;20122;-83
2024/01/24 11:41:23;;;;;;;18.05;12.02;;;4.50;99.90;;;;;;5056507;28;20032;-84
2024/01/24 11:43:48;;;;;;;20.85;13.10;;;4.60;99.90;;;;;;5053472;28;20078;-84
2024/01/24 11:46:14;;;;;;;23.77;13.73;;;4.70;99.90;;;;;;5021989;28;20033;-84
2024/01/24 11:48:40;;;;;;;28.67;14.82;;;4.80;99.90;;;;;;5040039;28;20039;-84
2024/01/24 11:51:06;;;;;;;22.48;14.02;;;4.80;99.90;;;;;;5056789;28;20503;-84
2024/01/24 11:53:32;;;;;;;21.90;13.52;;;4.80;99.90;;;;;;5055432;28;20057;-84
2024/01/24 11:56:14;;;;;;;12.82;8.57;;;4.70;99.90;;;;;;5038834;28;20040;-84
2024/01/24 11:58:40;;;;;;;16.23;9.23;;;4.60;99.90;;;;;;5054995;28;20025;-84
2024/01/24 12:01:13;;;;;;;16.60;10.35;;;4.50;99.90;;;;;;5055962;28;20024;-83
2024/01/24 12:03:46;;;;;;;18.73;11.00;;;4.40;99.90;;;;;;5057257;28;20025;-83
2024/01/24 12:06:12;;;;;;;15.77;9.50;;;4.40;99.90;;;;;;5056736;28;20028;-83
2024/01/24 12:08:38;;;;;;;15.55;9.45;;;4.30;99.90;;;;;;5039120;28;20032;-83
2024/01/24 12:11:08;;;;;;;29.63;16.92;;;4.30;99.90;;;;;;5060020;28;20104;-83
2024/01/24 12:13:34;;;;;;;23.73;13.68;;;4.30;99.90;;;;;;5045493;28;20029;-83
2024/01/24 12:16:01;;;;;;;18.70;11.52;;;4.30;99.90;;;;;;5056632;28;20374;-83
2024/01/24 12:18:27;;;;;;;16.60;9.82;;;4.30;99.90;;;;;;5042045;28;20055;-83
2024/01/24 12:20:54;;;;;;;14.05;8.75;;;4.30;99.90;;;;;;5065249;28;20021;-83
2024/01/24 12:23:20;;;;;;;17.33;8.68;;;4.30;99.90;;;;;;5040673;28;20029;-83
2024/01/24 12:25:46;;;;;;;13.90;8.35;;;4.30;99.90;;;;;;5056496;28;20017;-82
2024/01/24 12:28:13;;;;;;;13.88;7.35;;;4.40;99.90;;;;;;5040403;28;20040;-82
2024/01/24 12:30:46;;;;;;;11.85;8.00;;;4.40;99.90;;;;;;5038841;28;20033;-82
2024/01/24 12:33:15;;;;;;;12.90;8.30;;;4.40;99.90;;;;;;5056305;28;20033;-83
2024/01/24 12:35:46;;;;;;;15.27;8.07;;;4.50;99.90;;;;;;5040165;28;20052;-82
2024/01/24 12:38:12;;;;;;;14.90;9.43;;;4.50;99.90;;;;;;5057079;28;20039;-82
2024/01/24 12:40:38;;;;;;;12.95;8.55;;;4.60;99.90;;;;;;5055818;28;20025;-82
2024/01/24 12:43:04;;;;;;;15.27;8.63;;;4.60;99.90;;;;;;5036191;28;20048;-82
2024/01/24 12:45:29;;;;;;;12.57;7.80;;;4.70;99.90;;;;;;5040050;28;20051;-82
2024/01/24 12:47:55;;;;;;;12.98;7.97;;;4.70;99.90;;;;;;5056412;28;20543;-83